Data for 07/11/2010

Time Sea-Level Adjusted Pressure Absolute Pressure Temperature Relative Humidity Dew Point   
(mb) (inHg) (mb) (inHg) (C) (F) (%) (C) (F)
00:05 1020 30.12 849 25.07 14.2 57.5 70 8.9 47.9
00:10 1020 30.12 849 25.07 14.1 57.4 69 8.6 47.6
00:15 1020 30.12 849 25.07 14.1 57.5 68 8.4 47.1
00:20 1020 30.12 849 25.07 14.2 57.6 68 8.4 47.1
00:25 1020 30.12 849 25.07 14.3 57.7 67 8.3 46.9
00:30 1020 30.12 849 25.07 14.4 57.8 67 8.3 46.9
00:35 1020 30.12 849 25.07 14.4 57.9 66 8.1 46.6
00:40 1020 30.12 849 25.07 14.5 58 66 8.2 46.7
00:45 1020 30.12 849 25.07 14.4 57.9 68 8.6 47.4
00:50 1020 30.12 849 25.07 14 57.3 69 8.5 47.2
00:55 1020 30.12 849 25.07 13.9 56.9 68 8.2 46.7
01:00 1020 30.12 849 25.07 13.8 56.9 68 8.1 46.5
01:05 1020 30.12 849 25.07 14 57.1 68 8.3 47
01:10 1020 30.12 849 25.07 14.1 57.3 68 8.4 47.1
01:15 1020 30.12 849 25.07 14 57.1 69 8.5 47.3
01:20 1020 30.12 849 25.07 13.7 56.6 72 8.8 47.8
01:25 1020 30.12 849 25.07 13.5 56.2 72 8.6 47.4
01:30 1020 30.12 849 25.07 13.6 56.4 70 8.3 46.9
01:35 1020 30.12 849 25.07 13.7 56.6 69 8.1 46.5
01:40 1020 30.12 849 25.07 13.9 57.1 66 7.8 46
01:45 1020 30.12 849 25.07 14.1 57.4 66 8 46.3
01:50 1020 30.12 849 25.07 14.2 57.6 66 7.9 46.2
01:55 1020 30.12 849 25.07 14.3 57.7 66 8.1 46.6
02:00 1020 30.12 849 25.07 14.1 57.4 67 8.1 46.5
02:05 1019 30.09 849 25.07 14 57.3 68 8.2 46.8
02:10 1019 30.09 849 25.07 14 57.1 69 8.4 47
02:15 1019 30.09 849 25.07 13.8 56.8 69 8.2 46.8
02:20 1019 30.09 848 25.04 13.7 56.6 69 8.2 46.7
02:25 1019 30.09 848 25.04 13.7 56.6 69 8.1 46.6
02:30 1019 30.09 848 25.04 13.6 56.5 70 8.4 47.1
02:35 1019 30.09 848 25.04 13.4 56.1 71 8.3 46.9
02:40 1019 30.09 848 25.04 13.3 56 69 7.9 46.2
02:45 1019 30.09 848 25.04 13.5 56.3 69 8 46.4
02:50 1019 30.09 848 25.04 13.6 56.5 68 7.8 46.1
02:55 1019 30.09 848 25.04 13.8 56.9 67 8 46.3
03:00 1019 30.09 848 25.04 13.7 56.7 69 8.1 46.6
03:05 1019 30.09 848 25.04 13.7 56.6 68 7.9 46.3
03:10 1019 30.09 848 25.04 13.8 56.9 68 8.1 46.5
03:15 1019 30.09 848 25.04 13.7 56.7 70 8.3 47
03:20 1019 30.09 848 25.04 13.5 56.3 71 8.3 47
03:25 1019 30.09 848 25.04 13.5 56.3 69 8 46.3
03:30 1019 30.09 848 25.04 13.6 56.5 69 8 46.5
03:35 1019 30.09 848 25.04 13.6 56.5 69 8.1 46.5
03:40 1019 30.09 848 25.04 13.7 56.6 68 7.9 46.2
03:45 1019 30.09 848 25.04 13.8 56.9 69 8.3 46.9
03:50 1019 30.09 848 25.04 13.6 56.4 71 8.4 47
03:55 1019 30.09 848 25.04 13.4 56 71 8.2 46.8
04:00 1019 30.09 848 25.04 13.5 56.3 69 8 46.4
04:05 1019 30.09 848 25.04 13.6 56.6 69 8.1 46.5
04:10 1019 30.09 848 25.04 13.6 56.5 69 8.1 46.5
04:15 1019 30.09 848 25.04 13.7 56.7 68 7.9 46.3
04:20 1019 30.09 848 25.04 13.8 56.8 68 8.1 46.5
04:25 1019 30.09 848 25.04 13.8 56.9 68 8 46.4
04:30 1019 30.09 848 25.04 13.9 56.9 68 8 46.4
04:35 1019 30.09 848 25.04 13.8 56.9 68 8 46.4
04:40 1019 30.09 848 25.04 13.7 56.7 68 8 46.4
04:45 1019 30.09 848 25.04 13.7 56.7 67 7.7 45.9
04:50 1019 30.09 848 25.04 13.9 57 66 7.8 46
04:55 1019 30.09 848 25.04 13.9 57 66 7.8 46
05:00 1019 30.09 848 25.04 13.9 57 66 7.8 46.1
05:05 1019 30.09 848 25.04 13.8 56.8 67 7.9 46.2
05:10 1019 30.09 848 25.04 13.6 56.6 68 7.8 46.1
05:15 1019 30.09 848 25.04 13.7 56.6 68 8 46.4
05:20 1019 30.09 848 25.04 13.5 56.3 68 7.8 46
05:25 1019 30.09 848 25.04 13.6 56.4 68 7.9 46.2
05:30 1019 30.09 848 25.04 13.5 56.4 69 7.9 46.3
05:35 1019 30.09 848 25.04 13.6 56.4 68 7.8 46
05:40 1019 30.09 848 25.04 13.6 56.4 69 8.1 46.6
05:45 1019 30.09 848 25.04 13.2 55.8 71 8.1 46.5
05:50 1019 30.09 848 25.04 13.1 55.5 71 7.9 46.3
05:55 1019 30.09 848 25.04 12.9 55.3 72 8 46.4
06:00 1019 30.09 849 25.07 12.6 54.8 73 8 46.4
06:05 1019 30.09 849 25.07 12.4 54.3 74 7.8 46.1
06:10 1019 30.09 849 25.07 12.3 54.1 75 8 46.4
06:15 1019 30.09 849 25.07 11.9 53.4 76 7.8 46.1
06:20 1019 30.09 849 25.07 12 53.6 75 7.7 45.8
06:25 1019 30.09 849 25.07 12.2 54 75 7.9 46.2
06:30 1019 30.09 849 25.07 12 53.6 75 7.8 46
06:35 1019 30.09 849 25.07 12 53.6 75 7.8 46
06:40 1019 30.09 849 25.07 12 53.6 75 7.8 46.1
06:45 1019 30.09 849 25.07 12 53.7 75 7.8 46.1
06:50 1020 30.12 849 25.07 11.9 53.5 76 7.9 46.3
06:55 1020 30.12 849 25.07 11.9 53.4 75 7.6 45.7
07:00 1020 30.12 849 25.07 12.1 53.8 74 7.7 45.9
07:05 1020 30.12 849 25.07 12.2 54 75 7.9 46.2
07:10 1020 30.12 849 25.07 12.3 54.1 75 7.9 46.3
07:15 1020 30.12 849 25.07 12.5 54.4 73 7.8 46
07:20 1020 30.12 849 25.07 12.6 54.7 74 8.1 46.6
07:25 1020 30.12 849 25.07 12.7 54.9 74 8.2 46.7
07:30 1020 30.12 849 25.07 12.9 55.2 73 8.2 46.8
07:35 1020 30.12 849 25.07 13 55.4 73 8.3 46.9
07:40 1020 30.12 849 25.07 13.2 55.8 71 8.2 46.7
07:45 1020 30.12 849 25.07 13.5 56.3 69 8 46.4
07:50 1020 30.12 849 25.07 13.8 56.9 68 8.1 46.7
07:55 1020 30.12 849 25.07 14.2 57.5 68 8.4 47.2
08:00 1020 30.12 849 25.07 14.5 58 68 8.6 47.5
08:05 1020 30.12 849 25.07 14.7 58.4 67 8.7 47.7
08:10 1020 30.12 849 25.07 15 59 66 8.9 48
08:15 1020 30.12 849 25.07 15.2 59.4 65 8.7 47.7
08:20 1020 30.12 849 25.07 15.2 59.3 66 8.9 47.9
08:25 1020 30.12 849 25.07 15.4 59.8 66 9.1 48.4
08:30 1020 30.12 849 25.07 15.6 60.2 65 9.2 48.6
08:35 1020 30.12 849 25.07 15.9 60.6 61 8.5 47.3
08:40 1020 30.12 849 25.07 16.5 61.6 60 8.7 47.7
08:45 1020 30.12 849 25.07 16.4 61.5 61 9 48.1
08:50 1020 30.12 849 25.07 16.3 61.3 60 8.7 47.7
08:55 1020 30.12 849 25.07 16.9 62.5 57 8.5 47.4
09:00 1020 30.12 849 25.07 17.1 62.7 56 8.4 47.1
09:05 1020 30.12 849 25.07 17.1 62.7 58 8.9 48
09:10 1020 30.12 849 25.07 17.1 62.8 56 8.3 47
09:15 1020 30.12 849 25.07 17.5 63.6 56 8.7 47.6
09:20 1020 30.12 849 25.07 17.5 63.5 57 9 48.3
09:25 1020 30.12 849 25.07 17.6 63.7 57 9.1 48.3
09:30 1020 30.12 849 25.07 17.6 63.8 58 9.3 48.7
09:35 1020 30.12 849 25.07 17.6 63.6 58 9.3 48.8
09:40 1020 30.12 849 25.07 17.4 63.4 58 9.3 48.7
09:45 1020 30.12 849 25.07 17.6 63.7 57 9 48.2
09:50 1020 30.12 849 25.07 18 64.4 56 9.2 48.6
09:55 1019 30.09 849 25.07 18.1 64.6 57 9.7 49.4
10:00 1020 30.12 849 25.07 18.1 64.5 56 9.1 48.5
10:05 1020 30.12 849 25.07 18.5 65.3 53 8.9 48.1
10:10 1019 30.09 849 25.07 19 66.2 52 9.2 48.5
10:15 1019 30.09 849 25.07 19.3 66.8 51 9.1 48.4
10:20 1019 30.09 849 25.07 19.1 66.3 53 9.4 48.9
10:25 1019 30.09 849 25.07 18.8 65.8 53 9 48.3
10:30 1019 30.09 849 25.07 18.4 65.1 54 8.9 48
10:35 1019 30.09 849 25.07 18.1 64.5 55 9 48.3
10:40 1019 30.09 849 25.07 18.5 65.4 53 8.9 48.1
10:45 1019 30.09 848 25.04 18.6 65.6 53 9 48.3
10:50 1019 30.09 848 25.04 18.7 65.6 55 9.6 49.2
10:55 1019 30.09 848 25.04 17.9 64.2 56 9.2 48.5
11:00 1019 30.09 848 25.04 18.6 65.5 54 9.3 48.7
11:05 1019 30.09 848 25.04 19.2 66.5 52 9.2 48.5
11:10 1019 30.09 848 25.04 20.1 68.1 49 9.2 48.6
11:15 1019 30.09 848 25.04 20.9 69.6 47 9.4 49
11:20 1019 30.09 848 25.04 21.1 69.9 48 9.7 49.4
11:25 1019 30.09 848 25.04 21.1 70 46 9.2 48.6
11:30 1019 30.09 848 25.04 21.4 70.5 47 9.9 49.8
11:35 1019 30.09 848 25.04 20.8 69.5 47 9.4 48.8
11:40 1019 30.09 848 25.04 21.3 70.4 47 9.6 49.3
11:45 1019 30.09 848 25.04 21.9 71.5 45 9.5 49.1
11:50 1019 30.09 848 25.04 22.4 72.4 43 9.5 49.1
11:55 1019 30.09 848 25.04 22 71.5 43 9.2 48.5
12:00 1019 30.09 848 25.04 22.7 72.8 43 9.6 49.3
12:05 1019 30.09 848 25.04 22.4 72.2 43 9.5 49
12:10 1019 30.09 848 25.04 21.2 70.2 44 8.8 47.8
12:15 1019 30.09 848 25.04 21 69.9 47 9.4 48.9
12:20 1019 30.09 848 25.04 21.8 71.3 45 9.6 49.2
12:25 1019 30.09 848 25.04 22.1 71.8 42 8.7 47.7
12:30 1019 30.09 848 25.04 22.2 71.9 43 9.3 48.7
12:35 1018 30.06 848 25.04 22.7 72.9 43 9.6 49.3
12:40 1018 30.06 848 25.04 22.5 72.4 42 9.1 48.4
12:45 1018 30.06 848 25.04 22.2 72 40 8 46.5
12:50 1018 30.06 848 25.04 23.2 73.8 38 8.4 47
12:55 1018 30.06 847 25.01 23.2 73.8 41 9.3 48.8
13:00 1018 30.06 847 25.01 23.5 74.3 42 10 50
13:05 1018 30.06 847 25.01 24 75.1 39 9.2 48.6
13:10 1018 30.06 847 25.01 23.5 74.3 44 10.6 51
13:15 1018 30.06 847 25.01 23.3 74 44 10.4 50.8
13:20 1018 30.06 847 25.01 23.4 74.1 44 10.5 50.9
13:25 1018 30.06 847 25.01 23.5 74.2 42 10.2 50.3
13:30 1018 30.06 847 25.01 22.5 72.5 46 10.5 50.9
13:35 1018 30.06 847 25.01 23 73.5 40 9 48.2
13:40 1018 30.06 847 25.01 22.9 73.2 41 9.1 48.3
13:45 1018 30.06 847 25.01 23.7 74.7 38 9 48.1
13:50 1018 30.06 847 25.01 23.3 73.9 39 8.9 48.1
13:55 1018 30.06 847 25.01 22.7 72.8 41 8.8 47.9
14:00 1017 30.03 847 25.01 23.1 73.6 37 7.9 46.3
14:05 1017 30.03 847 25.01 22.4 72.4 39 8 46.3
14:10 1017 30.03 847 25.01 22.4 72.3 35 6.5 43.7
14:15 1017 30.03 847 25.01 24 75.1 32 6.3 43.4
14:20 1017 30.03 847 25.01 23.1 73.6 33 6.1 43
14:25 1017 30.03 846 24.98 23.1 73.6 31 5.2 41.4
14:30 1017 30.03 846 24.98 24.2 75.6 31 6.5 43.7
14:35 1017 30.03 846 24.98 25 77 29 5.9 42.6
14:40 1017 30.03 846 24.98 25.4 77.8 28 5.9 42.7
14:45 1017 30.03 846 24.98 25.4 77.6 29 6.4 43.6
14:50 1017 30.03 846 24.98 25.3 77.6 28 5.8 42.4
14:55 1017 30.03 846 24.98 25.9 78.7 28 6.3 43.3
15:00 1017 30.03 846 24.98 25.2 77.3 28 5.4 41.7
15:05 1017 30.03 846 24.98 24.9 76.8 28 5.5 41.9
15:10 1017 30.03 846 24.98 24.9 76.8 26 4.1 39.4
15:15 1017 30.03 846 24.98 24.9 76.8 26 4.5 40.1
15:20 1017 30.03 846 24.98 25.3 77.6 26 4.8 40.6
15:25 1017 30.03 846 24.98 25.9 78.5 27 5.6 42.1
15:30 1017 30.03 846 24.98 25.8 78.5 27 5.5 41.9
15:35 1016 30 846 24.98 26.4 79.5 26 5.8 42.4
15:40 1016 30 846 24.98 25.8 78.5 27 5.4 41.8
15:45 1016 30 846 24.98 25.9 78.6 27 5.7 42.3
15:50 1016 30 846 24.98 25.4 77.7 28 5.7 42.2
15:55 1016 30 846 24.98 25.3 77.5 27 5.4 41.7
16:00 1016 30 846 24.98 24.9 76.8 29 6.1 43
16:05 1016 30 845 24.95 24.8 76.7 29 5.8 42.4
16:10 1016 30 845 24.95 25.7 78.3 27 5.3 41.6
16:15 1016 30 845 24.95 26.1 79 27 5.8 42.5
16:20 1016 30 845 24.95 26 78.8 27 5.9 42.6
16:25 1016 30 845 24.95 25.8 78.4 27 5.4 41.8
16:30 1016 30 845 24.95 25.8 78.5 27 5.5 41.9
16:35 1016 30 845 24.95 25.9 78.5 27 5.9 42.6
16:40 1016 30 845 24.95 25 77.1 29 6.2 43.2
16:45 1016 30 845 24.95 25.5 77.9 27 5.5 41.9
16:50 1016 30 845 24.95 25.5 77.8 29 6.2 43.2
16:55 1016 30 845 24.95 25.4 77.8 27 5.4 41.7
17:00 1016 30 845 24.95 26.3 79.3 26 5.6 42.1
17:05 1016 30 845 24.95 25.8 78.5 29 6.5 43.8
17:10 1016 30 845 24.95 25.4 77.8 28 5.7 42.3
17:15 1015 29.97 845 24.95 24.8 76.6 29 5.6 42
17:20 1015 29.97 845 24.95 25.1 77.2 28 5.3 41.6
17:25 1015 29.97 845 24.95 25.9 78.6 27 5.9 42.5
17:30 1015 29.97 845 24.95 25.8 78.5 28 6.1 43.1
17:35 1015 29.97 845 24.95 24.7 76.5 30 6.1 42.9
17:40 1015 29.97 845 24.95 25 76.9 29 5.8 42.4
17:45 1015 29.97 845 24.95 24.6 76.2 30 6 42.8
17:50 1015 29.97 844 24.92 24.6 76.2 30 6 42.9
17:55 1015 29.97 844 24.92 24.8 76.6 29 5.9 42.6
18:00 1015 29.97 844 24.92 24.5 76.2 29 5.8 42.4
18:05 1015 29.97 844 24.92 24.6 76.2 29 5.8 42.4
18:10 1015 29.97 844 24.92 25.3 77.5 29 6 42.7
18:15 1015 29.97 844 24.92 25.1 77.1 30 6.3 43.4
18:20 1015 29.97 844 24.92 24.9 76.8 29 6.1 43
18:25 1015 29.97 844 24.92 24.7 76.5 30 6.3 43.4
18:30 1015 29.97 844 24.92 24.3 75.7 31 6.3 43.3
18:35 1015 29.97 844 24.92 24.2 75.6 30 5.8 42.4
18:40 1015 29.97 844 24.92 24.7 76.4 30 6.3 43.3
18:45 1015 29.97 844 24.92 24.8 76.6 30 6.3 43.4
18:50 1015 29.97 844 24.92 24.8 76.6 31 6.5 43.7
18:55 1015 29.97 844 24.92 24.2 75.6 31 6.5 43.7
19:00 1015 29.97 844 24.92 24.1 75.4 32 6.4 43.6
19:05 1014 29.94 844 24.92 23.9 75 32 6.3 43.4
19:10 1014 29.94 844 24.92 23.9 74.9 32 6.3 43.4
19:15 1014 29.94 844 24.92 24.2 75.5 31 6.1 42.9
19:20 1014 29.94 844 24.92 24.5 76.1 30 6.1 43
19:25 1014 29.94 844 24.92 24.7 76.4 31 6.7 44
19:30 1014 29.94 844 24.92 24.4 76 31 6.5 43.7
19:35 1014 29.94 844 24.92 24.3 75.8 31 6.5 43.7
19:40 1014 29.94 844 24.92 24.3 75.7 32 6.5 43.8
19:45 1014 29.94 844 24.92 23.7 74.7 33 6.9 44.4
19:50 1014 29.94 844 24.92 23.3 74 34 6.7 44
19:55 1014 29.94 843 24.89 23.3 73.9 32 6 42.8
20:00 1014 29.94 843 24.89 23.3 74 33 6.2 43.2
20:05 1014 29.94 843 24.89 23.3 74 32 6 42.9
20:10 1014 29.94 843 24.89 23.3 73.9 33 6.2 43.1
20:15 1014 29.94 843 24.89 23.3 73.9 37 7.9 46.3
20:20 1014 29.94 843 24.89 23.1 73.5 40 9 48.2
20:25 1014 29.94 843 24.89 22.9 73.2 41 9 48.2
20:30 1014 29.94 843 24.89 22.8 73.1 40 8.9 48
20:35 1014 29.94 843 24.89 22.8 73.1 40 8.7 47.7
20:40 1014 29.94 843 24.89 22.6 72.7 42 9.3 48.8
20:45 1014 29.94 843 24.89 22.2 72 45 10 50.1
20:50 1014 29.94 843 24.89 21.9 71.5 47 10.3 50.6
20:55 1014 29.94 843 24.89 21.6 70.9 49 10.5 50.9
21:00 1014 29.94 843 24.89 21.3 70.4 50 10.7 51.2
21:05 1014 29.94 843 24.89 21 69.8 50 10.3 50.6
21:10 1014 29.94 843 24.89 20.8 69.4 51 10.5 50.9
21:15 1014 29.94 843 24.89 20.7 69.3 50 10.2 50.4
21:20 1014 29.94 843 24.89 20.4 68.8 53 10.7 51.2
21:25 1014 29.94 843 24.89 20.2 68.4 54 10.6 51.1
21:30 1014 29.94 843 24.89 20.1 68.2 55 10.9 51.6
21:35 1014 29.94 843 24.89 19.9 67.8 57 11.3 52.4
21:40 1014 29.94 843 24.89 19.5 67.1 57 10.9 51.7
21:45 1014 29.94 843 24.89 19.5 67.1 56 10.5 51
21:50 1014 29.94 843 24.89 19.4 66.9 60 11.5 52.8
21:55 1014 29.94 843 24.89 19.5 67.1 54 9.9 49.9
22:00 1014 29.94 843 24.89 19.4 66.9 55 10.2 50.3
22:05 1014 29.94 843 24.89 19.1 66.4 56 10.3 50.5
22:10 1014 29.94 843 24.89 18.9 66.1 58 10.5 50.9
22:15 1014 29.94 843 24.89 18.7 65.7 58 10.3 50.5
22:20 1014 29.94 843 24.89 18.5 65.3 57 10 50
22:25 1014 29.94 843 24.89 18.4 65.2 55 9.4 48.8
22:30 1014 29.94 843 24.89 18.4 65 56 9.4 48.9
22:35 1014 29.94 843 24.89 18.3 65 56 9.4 48.9
22:40 1014 29.94 843 24.89 18.3 64.9 56 9.5 49.1
22:45 1014 29.94 843 24.89 18.2 64.7 58 9.8 49.7
22:50 1014 29.94 843 24.89 18.2 64.8 54 9 48.2
22:55 1014 29.94 843 24.89 18.3 64.9 54 9 48.1
23:00 1014 29.94 843 24.89 18.3 65 54 8.9 48
23:05 1014 29.94 843 24.89 18.3 64.9 55 9.2 48.6
23:10 1014 29.94 843 24.89 18.1 64.5 56 9.3 48.7
23:15 1014 29.94 843 24.89 18 64.4 57 9.4 49
23:20 1014 29.94 843 24.89 18 64.3 57 9.5 49.1
23:25 1014 29.94 843 24.89 17.9 64.3 57 9.5 49.1
23:30 1014 29.94 843 24.89 17.7 63.9 58 9.4 49
23:35 1014 29.94 843 24.89 17.6 63.7 58 9.5 49.1
23:40 1014 29.94 843 24.89 17.6 63.7 61 10.1 50.2
23:45 1014 29.94 843 24.89 17.7 63.8 62 10.4 50.7
23:50 1014 29.94 843 24.89 17.6 63.6 63 10.5 50.9
23:55 1014 29.94 843 24.89 17.6 63.6 63 10.5 50.9
24:00 1014 29.94 843 24.89 17.6 63.6 63 10.6 51